Time;durP1;ratioP1;P1;durP2;ratioP2;P2;SDS_P1;SDS_P2;PMS_P1;PMS_P2;Temp;Humidity;BMP_temperature;BMP_pressure;BME280_temperature;BME280_humidity;BME280_pressure;Samples;Min_cycle;Max_cycle;Signal;HPM_P1;HPM_P2
2022/01/21 00:00:02;;;;;;;42.10;10.05;;;;;;;-1.21;80.09;98849.47;6256322;23;20016;-76
2022/01/21 00:02:29;;;;;;;16.48;5.70;;;;;;;-1.35;81.07;98847.16;6256149;23;20451;-76
2022/01/21 00:04:57;;;;;;;12.05;4.03;;;;;;;-1.25;80.60;98857.53;6256159;23;20020;-75
2022/01/21 00:07:25;;;;;;;31.25;6.35;;;;;;;-1.38;81.18;98856.97;6255905;23;20019;-86
2022/01/21 00:09:52;;;;;;;13.05;4.03;;;;;;;-1.36;80.91;98861.31;6256206;23;20372;-76
2022/01/21 00:12:20;;;;;;;36.50;10.15;;;;;;;-1.31;80.96;98851.47;6256259;23;20016;-76
2022/01/21 00:14:47;;;;;;;23.98;6.50;;;;;;;-1.29;81.59;98863.81;6256036;23;20339;-79
2022/01/21 00:17:18;;;;;;;15.02;5.05;;;;;;;-1.38;81.73;98862.28;6256076;23;20022;-75
2022/01/21 00:19:48;;;;;;;14.70;3.58;;;;;;;-1.35;81.43;98862.19;6256335;23;20065;-75
2022/01/21 00:30:30;;;;;;;13.93;4.70;;;;;;;-1.37;80.80;98885.22;6256001;23;20016;-80
2022/01/21 00:32:59;;;;;;;19.77;3.85;;;;;;;-1.34;81.21;98869.25;6245722;23;20032;-75
2022/01/21 00:35:27;;;;;;;27.70;4.78;;;;;;;-1.37;80.99;98885.22;6255983;23;20016;-79
2022/01/21 00:37:55;;;;;;;29.70;6.57;;;;;;;-1.37;80.83;98875.47;6255917;23;20028;-81
2022/01/21 00:40:25;;;;;;;17.92;4.22;;;;;;;-1.33;79.91;98879.78;6256271;23;20016;-83
2022/01/21 00:45:34;;;;;;;11.27;3.42;;;;;;;-1.33;79.67;98876.28;6241197;23;20020;-82
2022/01/21 00:48:02;;;;;;;9.90;3.15;;;;;;;-1.38;79.15;98886.97;6256295;23;20016;-86
2022/01/21 00:50:30;;;;;;;15.90;3.10;;;;;;;-1.33;78.51;98874.47;6250455;23;20027;-75
2022/01/21 00:52:58;;;;;;;8.63;3.10;;;;;;;-1.26;78.17;98880.53;6255652;23;20017;-82
2022/01/21 00:55:25;;;;;;;10.27;2.75;;;;;;;-1.26;77.98;98883.16;6256123;23;20047;-83
2022/01/21 00:57:53;;;;;;;9.13;3.13;;;;;;;-1.27;77.83;98881.44;6246188;23;20012;-85
2022/01/21 01:00:21;;;;;;;8.95;3.00;;;;;;;-1.27;76.46;98881.44;6256097;23;20087;-83
2022/01/21 01:02:48;;;;;;;8.90;3.10;;;;;;;-1.23;76.07;98888.41;6256036;23;20023;-75
2022/01/21 01:05:17;;;;;;;13.27;3.25;;;;;;;-1.33;76.51;98886.88;6255450;23;20020;-79
2022/01/21 01:07:45;;;;;;;10.35;3.05;;;;;;;-1.35;75.23;98889.53;6256008;23;20083;-85
2022/01/21 01:10:20;;;;;;;9.77;2.90;;;;;;;-1.19;75.20;98890.06;6256364;23;20394;-83
2022/01/21 01:12:58;;;;;;;13.90;3.03;;;;;;;-1.22;75.91;98883.97;6255872;23;20016;-85
2022/01/21 01:20:56;;;;;;;9.88;3.20;;;;;;;-1.31;74.29;98882.41;6245385;23;20020;-78
2022/01/21 01:23:28;;;;;;;12.13;3.00;;;;;;;-1.33;74.71;98886.88;6245504;23;20423;-83
2022/01/21 01:28:43;;;;;;;8.10;2.78;;;;;;;-1.33;75.18;98886.88;6256105;23;20016;-82
2022/01/21 01:31:10;;;;;;;9.85;2.88;;;;;;;-1.31;74.81;98879.75;6256018;23;20024;-77
2022/01/21 01:33:40;;;;;;;9.98;3.05;;;;;;;-1.21;75.34;98875.13;6256074;23;20016;-80
2022/01/21 01:36:10;;;;;;;9.65;2.65;;;;;;;-1.29;74.79;98866.47;6255981;23;20071;-79
2022/01/21 01:41:36;;;;;;;11.25;3.83;;;;;;;-1.39;74.78;98881.72;6163219;23;20025;-79
2022/01/21 01:49:36;;;;;;;8.43;3.42;;;;;;;-1.38;74.81;98867.56;6164741;23;20026;-83
2022/01/21 01:52:09;;;;;;;9.85;3.58;;;;;;;-1.43;73.80;98866.78;6164891;23;20025;-76
2022/01/21 01:54:39;;;;;;;17.38;3.67;;;;;;;-1.32;73.85;98864.78;6165108;23;20569;-82
2022/01/21 01:57:07;;;;;;;13.95;4.07;;;;;;;-1.42;74.34;98877.34;6193137;23;20100;-80
2022/01/21 01:59:35;;;;;;;10.07;3.58;;;;;;;-1.37;73.53;98869.31;6194705;23;20032;-75
2022/01/21 02:02:05;;;;;;;10.02;3.45;;;;;;;-1.38;73.05;98888.75;6194549;23;20032;-83
2022/01/21 02:04:34;;;;;;;9.73;3.30;;;;;;;-1.35;73.73;98876.31;6194327;23;20095;-83
2022/01/21 02:07:01;;;;;;;11.60;3.20;;;;;;;-1.36;73.79;98874.56;6194780;23;20028;-79
2022/01/21 02:09:30;;;;;;;17.35;3.72;;;;;;;-1.41;73.64;98895.00;6194608;23;20032;-76
2022/01/21 02:11:58;;;;;;;18.23;5.40;;;;;;;-1.31;73.46;98880.63;6194427;23;20043;-75
2022/01/21 02:14:29;;;;;;;9.25;3.20;;;;;;;-1.44;73.99;98884.47;6194560;23;20364;-81
2022/01/21 02:17:18;;;;;;;8.13;3.10;;;;;;;-1.46;73.99;98880.97;6217231;23;20020;-81
2022/01/21 02:22:36;;;;;;;13.40;3.80;;;;;;;-1.40;73.98;98891.44;6257299;23;20032;-76
2022/01/21 02:25:15;;;;;;;14.55;3.55;;;;;;;-1.37;73.55;98878.13;6257191;23;20020;-78
2022/01/21 02:27:45;;;;;;;7.88;2.90;;;;;;;-1.51;74.27;98878.41;6257654;23;20070;-76
2022/01/21 02:30:18;;;;;;;9.30;3.00;;;;;;;-1.51;73.81;98885.50;6257476;23;20016;-80
2022/01/21 02:43:49;;;;;;;9.18;3.30;;;;;;;-1.59;74.65;98890.13;6256112;23;20089;-82
2022/01/21 02:46:17;;;;;;;8.70;2.88;;;;;;;-1.62;74.74;98885.75;6257289;23;20020;-82
2022/01/21 02:48:45;;;;;;;16.67;5.25;;;;;;;-1.66;75.11;98892.00;6257087;23;20023;-76
2022/01/21 02:51:14;;;;;;;9.02;3.03;;;;;;;-1.66;75.40;98889.38;6256732;23;20026;-77
2022/01/21 02:56:28;;;;;;;9.10;3.05;;;;;;;-1.65;75.37;98888.47;6227568;23;20024;-84
2022/01/21 02:58:57;;;;;;;8.98;3.13;;;;;;;-1.57;75.16;98890.94;6256374;23;20395;-76
2022/01/21 03:01:25;;;;;;;9.43;3.10;;;;;;;-1.66;75.04;98890.22;6256785;23;20016;-76
2022/01/21 03:03:53;;;;;;;9.45;2.78;;;;;;;-1.69;74.93;98894.72;6256697;23;20015;-76
2022/01/21 03:06:22;;;;;;;10.75;3.45;;;;;;;-1.67;75.38;98882.31;6256093;23;20046;-81
2022/01/21 03:08:54;;;;;;;12.30;3.10;;;;;;;-1.74;75.91;98881.56;6256828;23;20090;-78
2022/01/21 03:11:24;;;;;;;8.88;2.85;;;;;;;-1.78;75.98;98880.78;6256906;23;20024;-80
2022/01/21 03:13:51;;;;;;;7.88;3.13;;;;;;;-1.78;76.09;98875.50;6256461;23;20040;-82
2022/01/21 03:16:21;;;;;;;7.85;3.00;;;;;;;-1.72;75.27;98870.97;6256820;23;20016;-80
2022/01/21 03:18:49;;;;;;;9.45;2.83;;;;;;;-1.77;75.01;98874.59;6256798;23;20016;-78
2022/01/21 03:21:19;;;;;;;9.95;3.00;;;;;;;-1.79;74.96;98868.47;6220022;23;20463;-76
2022/01/21 03:23:48;;;;;;;7.70;2.75;;;;;;;-1.76;74.88;98865.75;6257109;23;20043;-81
2022/01/21 03:26:17;;;;;;;10.85;2.80;;;;;;;-1.80;74.79;98872.00;6256648;23;20455;-77
2022/01/21 03:28:45;;;;;;;6.75;2.78;;;;;;;-1.84;75.50;98882.69;6256242;23;20039;-79
2022/01/21 03:31:13;;;;;;;10.23;2.92;;;;;;;-1.87;74.76;98880.97;6256595;23;20016;-77
2022/01/21 03:33:42;;;;;;;10.40;2.97;;;;;;;-1.82;74.33;98887.06;6256661;23;20016;-82
2022/01/21 03:36:10;;;;;;;9.05;3.45;;;;;;;-1.88;75.02;98873.94;6256694;23;20038;-77
2022/01/21 03:38:39;;;;;;;10.95;3.00;;;;;;;-1.95;74.39;98885.56;6256497;23;20020;-77
2022/01/21 03:41:09;;;;;;;8.90;2.65;;;;;;;-1.90;74.84;98875.72;6256498;23;20016;-76
2022/01/21 03:43:37;;;;;;;10.40;3.28;;;;;;;-1.84;74.60;98875.59;6256098;23;20019;-81
2022/01/21 03:46:05;;;;;;;10.05;2.63;;;;;;;-1.85;74.66;98891.53;6256440;23;20099;-76
2022/01/21 03:48:33;;;;;;;7.97;2.75;;;;;;;-1.94;74.79;98887.28;6256733;23;20093;-77
2022/01/21 03:51:02;;;;;;;9.13;2.70;;;;;;;-1.85;74.16;98889.75;6256451;23;20016;-75
2022/01/21 03:53:29;;;;;;;10.10;3.00;;;;;;;-1.83;74.87;98902.97;6256756;23;20019;-76
2022/01/21 03:55:57;;;;;;;9.65;3.05;;;;;;;-1.88;74.49;98892.44;6255752;23;20020;-76
2022/01/21 03:58:25;;;;;;;12.20;3.72;;;;;;;-1.90;73.89;98897.81;6256502;23;20027;-78
2022/01/21 04:00:55;;;;;;;12.65;3.28;;;;;;;-1.84;74.79;98890.63;6256122;23;20024;-77
2022/01/21 04:03:24;;;;;;;6.88;2.55;;;;;;;-1.90;74.26;98897.81;6219779;23;20016;-76
2022/01/21 04:05:51;;;;;;;8.32;2.50;;;;;;;-1.92;74.44;98907.53;6256220;23;20020;-77
2022/01/21 04:08:21;;;;;;;8.60;2.85;;;;;;;-1.99;74.57;98902.41;6256290;23;20027;-76
2022/01/21 04:10:49;;;;;;;8.68;3.10;;;;;;;-1.98;75.01;98906.78;6255521;23;20016;-78
2022/01/21 04:13:18;;;;;;;8.32;2.65;;;;;;;-1.93;74.18;98911.09;6246502;23;20016;-79
2022/01/21 04:15:47;;;;;;;12.75;2.70;;;;;;;-1.95;74.63;98910.25;6256260;23;20443;-81
2022/01/21 04:18:15;;;;;;;8.75;2.97;;;;;;;-1.86;74.24;98914.47;6256304;23;20328;-81
2022/01/21 04:20:43;;;;;;;7.70;2.63;;;;;;;-1.84;73.93;98909.16;6219622;23;20042;-80
2022/01/21 04:23:11;;;;;;;7.93;2.65;;;;;;;-1.87;73.51;98912.72;6256167;23;20087;-83
2022/01/21 04:25:41;;;;;;;6.93;2.70;;;;;;;-1.82;74.02;98920.59;6255726;23;20027;-76
2022/01/21 04:28:08;;;;;;;7.38;2.60;;;;;;;-1.91;74.26;98921.63;6256180;23;20020;-81
2022/01/21 04:30:36;;;;;;;10.07;3.13;;;;;;;-1.82;73.87;98925.88;6256056;23;20016;-79
2022/01/21 04:33:06;;;;;;;10.90;3.38;;;;;;;-1.90;74.69;98912.78;6256110;23;20379;-81
2022/01/21 04:35:34;;;;;;;15.95;3.70;;;;;;;-1.89;74.96;98914.53;6256198;23;20027;-81
2022/01/21 04:38:04;;;;;;;5.80;2.67;;;;;;;-1.92;75.10;98912.84;6256050;23;20031;-82
2022/01/21 04:40:36;;;;;;;15.75;7.25;;;;;;;-2.02;74.57;98913.94;6255655;23;20347;-83
2022/01/21 04:48:35;;;;;;;18.55;8.88;;;;;;;-1.92;74.39;98920.78;6256086;23;20339;-83
2022/01/21 04:51:14;;;;;;;12.85;5.05;;;;;;;-1.88;75.43;98926.88;6256028;23;20451;-81
2022/01/21 04:53:43;;;;;;;10.90;4.03;;;;;;;-1.91;75.30;98924.28;6256157;23;20020;-78
2022/01/21 04:56:12;;;;;;;13.23;4.00;;;;;;;-1.84;75.23;98917.09;6255206;23;20012;-80
2022/01/21 04:58:41;;;;;;;10.30;4.35;;;;;;;-1.84;74.80;98915.31;6256037;23;20020;-82
2022/01/21 05:01:10;;;;;;;11.77;4.00;;;;;;;-1.75;74.80;98909.84;6255938;23;20042;-80
2022/01/21 05:03:39;;;;;;;10.60;3.40;;;;;;;-1.77;74.62;98914.31;6256290;23;20020;-82
2022/01/21 05:06:06;;;;;;;18.75;3.15;;;;;;;-1.82;75.18;98932.06;6255794;23;20032;-82
2022/01/21 05:08:42;;;;;;;10.82;3.60;;;;;;;-1.94;75.57;98927.00;6255465;23;20042;-82
2022/01/21 05:11:10;;;;;;;15.50;3.80;;;;;;;-1.84;75.80;98923.25;6255756;23;20020;-82
2022/01/21 05:13:41;;;;;;;8.48;3.00;;;;;;;-1.99;76.01;98924.47;6255849;23;20047;-81
2022/01/21 05:16:28;;;;;;;16.70;3.90;;;;;;;-1.97;76.59;98933.25;6255883;23;20020;-76
2022/01/21 05:18:56;;;;;;;11.60;2.65;;;;;;;-1.83;76.24;98911.78;6255975;23;20016;-85
2022/01/21 05:21:23;;;;;;;10.48;3.28;;;;;;;-1.88;75.96;98905.69;6218717;23;20091;-84
2022/01/21 05:23:51;;;;;;;14.05;3.25;;;;;;;-1.91;76.63;98919.00;6256893;23;20047;-81
2022/01/21 05:26:19;;;;;;;12.75;3.60;;;;;;;-1.82;76.09;98920.59;6257622;23;20020;-82
2022/01/21 05:28:46;;;;;;;7.68;2.88;;;;;;;-1.79;76.26;98905.53;6257713;23;20020;-76
2022/01/21 05:31:15;;;;;;;15.07;2.70;;;;;;;-1.92;76.82;98912.84;6257602;23;20046;-79
2022/01/21 05:33:43;;;;;;;10.90;2.65;;;;;;;-1.87;76.69;98907.44;6221149;23;20325;-81
2022/01/21 05:36:10;;;;;;;8.85;2.90;;;;;;;-1.76;76.88;98907.22;6257419;23;20023;-82
2022/01/21 05:38:38;;;;;;;9.93;2.70;;;;;;;-1.79;77.34;98917.88;6257257;23;20027;-81
2022/01/21 05:41:07;;;;;;;10.77;2.75;;;;;;;-1.77;77.53;98913.41;6257594;23;20029;-77
2022/01/21 05:43:35;;;;;;;9.32;2.70;;;;;;;-1.89;77.63;98911.88;6257666;23;20031;-76
2022/01/21 05:48:49;;;;;;;12.50;3.50;;;;;;;-1.75;78.62;98920.44;6257557;23;20130;-79
2022/01/21 06:04:49;;;;;;;9.68;3.60;;;;;;;-1.85;82.34;98940.03;6243654;23;20020;-76
2022/01/21 06:07:17;;;;;;;16.90;5.07;;;;;;;-1.89;82.94;98935.72;6257750;23;20020;-80
2022/01/21 06:09:45;;;;;;;11.38;4.13;;;;;;;-1.86;82.28;98934.78;6257459;23;20020;-80
2022/01/21 06:12:13;;;;;;;11.35;3.92;;;;;;;-1.85;82.56;98937.41;6257431;23;20020;-75
2022/01/21 06:24:51;;;;;;;20.83;5.32;;;;;;;-1.71;82.34;98953.00;6159379;22;20009;-78
2022/01/21 06:27:25;;;;;;;11.95;3.38;;;;;;;-1.81;82.62;98949.69;6225218;23;20079;-79
2022/01/21 06:29:53;;;;;;;10.52;3.15;;;;;;;-1.77;82.21;98956.66;6225234;23;20339;-78
2022/01/21 06:32:21;;;;;;;14.68;4.70;;;;;;;-1.81;82.51;98960.28;6225789;23;20020;-79
2022/01/21 06:34:48;;;;;;;13.18;3.50;;;;;;;-1.80;82.11;98969.97;6226137;23;20088;-77
2022/01/21 06:37:16;;;;;;;27.10;7.45;;;;;;;-1.83;82.51;98969.16;6226328;23;20017;-78
2022/01/21 06:39:43;;;;;;;11.07;3.35;;;;;;;-1.70;82.41;98959.19;6225854;23;20020;-78
2022/01/21 06:42:12;;;;;;;9.90;3.35;;;;;;;-1.78;82.64;98962.88;6226272;23;20070;-79
2022/01/21 06:44:40;;;;;;;12.18;4.25;;;;;;;-1.65;82.55;98970.56;6226367;23;20020;-77
2022/01/21 06:47:10;;;;;;;35.95;12.38;;;;;;;-1.71;82.83;98974.19;6226192;23;20020;-79
2022/01/21 06:49:37;;;;;;;41.70;11.95;;;;;;;-1.65;82.75;98975.84;6226438;23;20027;-79
2022/01/21 06:52:06;;;;;;;24.77;7.13;;;;;;;-1.64;82.95;98967.00;6226097;23;20030;-78
2022/01/21 06:54:34;;;;;;;32.63;12.65;;;;;;;-1.66;82.47;98968.81;6225911;23;20016;-78
2022/01/21 06:57:01;;;;;;;18.33;6.07;;;;;;;-1.70;83.42;98972.44;6226689;23;20021;-79
2022/01/21 06:59:30;;;;;;;16.23;4.95;;;;;;;-1.70;83.02;98977.72;6226273;23;20016;-78
2022/01/21 07:01:58;;;;;;;17.90;6.28;;;;;;;-1.68;83.59;98981.22;6226382;23;20018;-77
2022/01/21 07:04:26;;;;;;;13.82;4.85;;;;;;;-1.64;83.55;98983.75;6226208;23;20025;-79
2022/01/21 07:06:56;;;;;;;15.85;4.20;;;;;;;-1.69;83.96;98984.78;6226343;23;20017;-78
2022/01/21 07:09:24;;;;;;;19.83;4.03;;;;;;;-1.69;84.10;98996.22;6225800;23;20086;-78
2022/01/21 07:11:51;;;;;;;10.85;3.67;;;;;;;-1.63;83.97;98990.81;6226123;23;20023;-77
2022/01/21 07:14:19;;;;;;;13.35;3.88;;;;;;;-1.66;84.66;99005.88;6226328;23;20020;-80
2022/01/21 07:16:48;;;;;;;12.43;4.40;;;;;;;-1.63;84.33;99003.19;6226139;23;20047;-78
2022/01/21 07:19:16;;;;;;;12.30;4.20;;;;;;;-1.62;84.90;99013.75;6226115;23;20020;-79
2022/01/21 07:21:43;;;;;;;14.32;3.90;;;;;;;-1.75;85.24;98999.00;6225990;23;20021;-77
2022/01/21 07:24:11;;;;;;;14.68;4.57;;;;;;;-1.84;85.46;99012.41;6225674;23;20017;-79
2022/01/21 07:26:38;;;;;;;16.80;5.03;;;;;;;-1.71;85.79;99010.41;6225598;23;20017;-78
2022/01/21 07:29:06;;;;;;;16.52;6.55;;;;;;;-1.69;85.34;99008.59;6226017;23;20020;-78
2022/01/21 07:31:34;;;;;;;43.10;13.95;;;;;;;-1.62;85.33;98997.88;6226057;23;20023;-77
2022/01/21 07:34:06;;;;;;;15.10;4.72;;;;;;;-1.59;84.87;99010.16;6226059;23;20028;-79
2022/01/21 07:36:33;;;;;;;14.70;4.65;;;;;;;-1.55;84.95;99019.78;6226010;23;20070;-78
2022/01/21 07:39:01;;;;;;;30.67;11.05;;;;;;;-1.52;84.54;99024.16;6225517;23;20023;-77
2022/01/21 07:41:29;;;;;;;24.98;7.43;;;;;;;-1.57;84.83;99024.25;6226044;23;20027;-77
2022/01/21 07:43:56;;;;;;;27.00;8.70;;;;;;;-1.49;85.78;99026.75;6226038;23;20023;-79
2022/01/21 07:46:26;;;;;;;18.63;6.47;;;;;;;-1.51;86.08;99023.25;6188698;23;20040;-79
2022/01/21 07:48:53;;;;;;;15.75;5.18;;;;;;;-1.50;85.92;99033.81;6225930;23;20347;-76
2022/01/21 07:51:22;;;;;;;15.18;5.03;;;;;;;-1.47;85.60;99031.09;6189454;23;20087;-77
2022/01/21 07:53:50;;;;;;;13.13;4.88;;;;;;;-1.48;84.93;99029.34;6225072;23;20025;-77
2022/01/21 07:56:17;;;;;;;25.13;6.47;;;;;;;-1.50;84.90;99035.59;6225788;23;20021;-76
2022/01/21 07:58:45;;;;;;;22.98;6.15;;;;;;;-1.35;83.97;99034.41;6225468;23;20400;-79
2022/01/21 08:01:13;;;;;;;12.68;4.10;;;;;;;-1.41;84.21;99032.75;6225506;23;20021;-79
2022/01/21 08:03:40;;;;;;;31.83;9.25;;;;;;;-1.29;83.79;99046.66;6225852;23;20027;-79
2022/01/21 08:06:08;;;;;;;22.80;6.03;;;;;;;-1.39;83.97;99052.13;6225820;23;20017;-77
2022/01/21 08:08:37;;;;;;;20.25;5.78;;;;;;;-1.33;83.83;99048.50;6188565;23;20032;-77
2022/01/21 08:11:04;;;;;;;18.10;6.00;;;;;;;-1.36;83.48;99046.78;6188651;23;20012;-79
2022/01/21 08:13:32;;;;;;;17.25;6.10;;;;;;;-1.21;82.82;99035.00;6225258;23;20321;-77
2022/01/21 08:16:00;;;;;;;27.00;7.82;;;;;;;-1.25;83.44;99046.56;6225597;23;20443;-76
2022/01/21 08:18:28;;;;;;;12.93;4.32;;;;;;;-1.17;81.92;99033.16;6225637;23;20027;-78
2022/01/21 08:20:55;;;;;;;20.70;7.78;;;;;;;-1.14;82.38;99046.34;6225176;23;20020;-78
2022/01/21 08:23:23;;;;;;;20.40;6.20;;;;;;;-1.18;82.06;99050.81;6225646;23;20051;-76
2022/01/21 08:25:52;;;;;;;55.63;19.17;;;;;;;-1.14;81.75;99058.72;6225371;23;20016;-77
2022/01/21 08:28:20;;;;;;;94.07;32.28;;;;;;;-1.20;82.13;99055.28;6225676;23;20132;-79
2022/01/21 08:30:48;;;;;;;31.20;10.43;;;;;;;-1.15;81.86;99059.63;6225622;23;20025;-78
2022/01/21 08:33:15;;;;;;;22.95;7.47;;;;;;;-1.14;81.30;99053.41;6225489;23;20016;-78
2022/01/21 08:35:42;;;;;;;46.58;14.60;;;;;;;-1.11;81.98;99061.28;6225026;23;20017;-78
2022/01/21 08:38:10;;;;;;;31.58;9.45;;;;;;;-1.06;81.63;99056.75;6223960;23;20028;-79
2022/01/21 08:40:38;;;;;;;18.98;6.43;;;;;;;-1.08;81.03;99059.47;6221239;23;20030;-77
2022/01/21 08:43:07;;;;;;;36.35;9.95;;;;;;;-1.06;81.65;99067.38;6221091;23;20051;-77
2022/01/21 08:45:35;;;;;;;21.05;7.90;;;;;;;-1.04;80.95;99068.22;6221108;23;20459;-78
2022/01/21 08:48:04;;;;;;;40.75;11.85;;;;;;;-1.08;81.66;99064.78;6221292;23;20115;-77
2022/01/21 08:50:32;;;;;;;32.78;11.68;;;;;;;-1.01;81.86;99052.25;6221384;23;20529;-77
2022/01/21 08:53:10;;;;;;;39.10;14.43;;;;;;;-1.02;81.26;99063.75;6221723;23;20024;-78
2022/01/21 08:55:38;;;;;;;32.70;13.02;;;;;;;-0.96;80.66;99065.41;6221237;23;20446;-77
2022/01/21 08:58:07;;;;;;;21.25;8.77;;;;;;;-1.00;80.61;99069.91;6223363;23;20024;-77
2022/01/21 09:00:35;;;;;;;28.48;10.77;;;;;;;-0.96;81.08;99068.94;6223849;23;20023;-77
2022/01/21 09:03:06;;;;;;;28.75;8.98;;;;;;;-0.92;80.77;99069.72;6223370;23;20028;-82
2022/01/21 09:05:34;;;;;;;30.33;11.13;;;;;;;-0.94;81.06;99069.78;6186362;23;20020;-80
2022/01/21 09:08:01;;;;;;;18.85;6.35;;;;;;;-0.94;80.63;99069.78;6222887;23;20021;-78
2022/01/21 09:10:29;;;;;;;43.88;17.80;;;;;;;-0.97;81.06;99074.25;6223533;23;20351;-77
2022/01/21 09:12:57;;;;;;;35.05;14.55;;;;;;;-0.96;80.53;99076.91;6223768;23;20028;-77
2022/01/21 09:15:26;;;;;;;84.93;30.38;;;;;;;-0.97;80.91;99072.50;6223059;23;20020;-78
2022/01/21 09:18:02;;;;;;;40.53;13.93;;;;;;;-0.92;80.89;99081.22;6227067;23;20040;-78
2022/01/21 09:20:30;;;;;;;44.40;13.52;;;;;;;-0.84;80.30;99090.78;6225591;23;20016;-77
2022/01/21 09:22:57;;;;;;;20.27;6.65;;;;;;;-0.78;80.67;99088.88;6226592;23;20020;-78
2022/01/21 09:25:25;;;;;;;19.42;7.40;;;;;;;-0.78;80.55;99088.00;6227134;23;20021;-78
2022/01/21 09:27:53;;;;;;;22.45;7.35;;;;;;;-0.76;79.97;99088.84;6217354;23;20086;-78
2022/01/21 09:30:20;;;;;;;35.15;10.13;;;;;;;-0.85;80.58;99084.59;6190360;23;20019;-78
2022/01/21 09:32:49;;;;;;;42.10;12.55;;;;;;;-0.82;80.15;99076.56;6227195;23;20597;-78
2022/01/21 09:35:17;;;;;;;33.75;9.20;;;;;;;-0.73;80.69;99084.34;6226721;23;20054;-78
2022/01/21 09:37:44;;;;;;;36.72;13.15;;;;;;;-0.67;80.46;99080.66;6227045;23;20043;-78
2022/01/21 09:40:13;;;;;;;29.55;9.73;;;;;;;-0.60;79.81;99086.72;6227550;23;20021;-78
2022/01/21 09:42:41;;;;;;;24.33;7.40;;;;;;;-0.59;78.95;99083.16;6227031;23;20016;-78
2022/01/21 09:45:13;;;;;;;23.05;8.75;;;;;;;-0.62;79.16;99078.78;6226994;23;20042;-77
2022/01/21 09:47:47;;;;;;;19.40;5.65;;;;;;;-0.62;78.50;99073.47;6226609;23;20012;-77
2022/01/21 09:50:18;;;;;;;24.65;8.23;;;;;;;-0.57;78.82;99077.81;6227065;23;20021;-78
2022/01/21 09:52:46;;;;;;;16.48;5.65;;;;;;;-0.46;77.78;99075.78;6190325;23;20095;-78
2022/01/21 09:55:17;;;;;;;12.82;3.97;;;;;;;-0.41;77.13;99073.88;6226816;23;20016;-78
2022/01/21 09:57:47;;;;;;;30.17;9.63;;;;;;;-0.47;78.10;99085.50;6216910;23;20016;-79
2022/01/21 10:00:16;;;;;;;17.98;5.57;;;;;;;-0.50;77.34;99079.41;6226922;23;20016;-78
2022/01/21 10:02:45;;;;;;;27.92;7.78;;;;;;;-0.49;77.64;99075.84;6216287;23;20451;-79
2022/01/21 10:05:13;;;;;;;36.85;8.27;;;;;;;-0.56;77.51;99082.22;6226752;23;20017;-80
2022/01/21 10:07:43;;;;;;;33.50;11.65;;;;;;;-0.50;77.06;99077.63;6226711;23;20355;-79
2022/01/21 10:10:11;;;;;;;45.50;18.05;;;;;;;-0.61;76.72;99074.34;6227085;23;20013;-79
2022/01/21 10:12:43;;;;;;;76.50;29.73;;;;;;;-0.46;77.37;99078.44;6226777;23;20208;-78
2022/01/21 10:15:11;;;;;;;37.58;11.93;;;;;;;-0.40;76.88;99086.25;6226722;23;20091;-80
2022/01/21 10:17:59;;;;;;;30.48;8.70;;;;;;;-0.51;76.23;99083.84;6226379;23;20047;-78
2022/01/21 10:20:27;;;;;;;32.10;11.02;;;;;;;-0.51;75.42;99080.34;6226764;23;20024;-78
2022/01/21 10:23:00;;;;;;;33.85;11.93;;;;;;;-0.44;75.33;99076.63;6226808;23;20021;-79
2022/01/21 10:25:28;;;;;;;27.63;9.27;;;;;;;-0.44;75.63;99074.81;6226557;23;20017;-78
2022/01/21 10:28:09;;;;;;;24.25;7.80;;;;;;;-0.43;74.90;99081.03;6226544;23;20017;-77
2022/01/21 10:30:37;;;;;;;25.45;6.68;;;;;;;-0.29;74.52;99072.72;6226657;23;20020;-77
2022/01/21 10:33:19;;;;;;;33.53;9.25;;;;;;;-0.38;73.76;99072.97;6226134;23;20017;-79
2022/01/21 10:35:49;;;;;;;21.13;6.35;;;;;;;-0.35;74.00;99065.78;6226667;23;20440;-78
2022/01/21 10:38:24;;;;;;;27.60;9.55;;;;;;;-0.42;74.08;99074.81;6226634;23;20071;-77
2022/01/21 10:40:52;;;;;;;29.98;9.57;;;;;;;-0.32;73.89;99065.69;6226698;23;20070;-78
2022/01/21 10:43:20;;;;;;;26.27;9.27;;;;;;;-0.34;73.93;99058.69;6226965;23;20495;-79
2022/01/21 10:45:51;;;;;;;19.55;5.93;;;;;;;-0.28;73.03;99055.91;6226330;23;20024;-77
2022/01/21 10:48:18;;;;;;;24.67;8.82;;;;;;;-0.29;72.96;99062.13;6226505;23;20020;-80
2022/01/21 10:50:46;;;;;;;47.40;20.17;;;;;;;-0.28;74.07;99057.66;6226486;23;20043;-78
2022/01/21 10:53:32;;;;;;;28.92;12.43;;;;;;;-0.21;73.50;99059.25;6226325;23;20096;-78
2022/01/21 10:56:11;;;;;;;31.50;11.98;;;;;;;-0.17;73.01;99050.31;6226333;23;20024;-77
2022/01/21 10:58:42;;;;;;;41.88;15.00;;;;;;;-0.20;73.75;99053.06;6226497;23;20016;-79
2022/01/21 11:01:16;;;;;;;33.17;8.98;;;;;;;-0.15;74.23;99053.81;6188727;23;20023;-77
2022/01/21 11:03:57;;;;;;;13.88;4.90;;;;;;;-0.17;74.58;99055.63;6226308;23;20021;-78
2022/01/21 11:06:29;;;;;;;20.52;6.75;;;;;;;-0.18;73.89;99046.78;6225983;23;20088;-79
2022/01/21 11:09:19;;;;;;;28.15;8.52;;;;;;;-0.16;74.31;99060.03;6226297;23;20096;-79
2022/01/21 11:11:48;;;;;;;35.08;10.57;;;;;;;-0.11;73.94;99055.47;6226150;23;20031;-80
2022/01/21 11:14:18;;;;;;;25.33;7.22;;;;;;;-0.15;74.23;99048.50;6226523;23;20020;-80
2022/01/21 11:16:47;;;;;;;25.55;8.50;;;;;;;-0.07;73.74;99051.84;6225480;23;20020;-80
2022/01/21 11:19:16;;;;;;;32.50;9.95;;;;;;;-0.07;73.30;99051.84;6226334;23;20020;-80
2022/01/21 11:21:51;;;;;;;23.13;6.03;;;;;;;-0.06;73.30;99045.59;6225631;23;20296;-79
2022/01/21 11:24:22;;;;;;;34.47;8.95;;;;;;;-0.06;73.02;99050.03;6216478;23;20016;-79
2022/01/21 11:27:11;;;;;;;25.17;8.25;;;;;;;-0.03;73.18;99036.69;6225832;23;20565;-80
2022/01/21 11:29:39;;;;;;;29.30;7.32;;;;;;;-0.03;72.74;99041.97;6225345;23;20017;-79
2022/01/21 11:32:07;;;;;;;18.58;5.38;;;;;;;-0.01;72.32;99042.81;6225738;23;20021;-79
2022/01/21 11:34:35;;;;;;;29.55;7.32;;;;;;;-0.06;72.17;99048.25;6225507;23;20072;-78
2022/01/21 11:37:04;;;;;;;35.47;11.20;;;;;;;-0.05;72.78;99047.34;6225389;23;20478;-78
2022/01/21 11:39:34;;;;;;;54.17;13.10;;;;;;;-0.01;72.57;99043.69;6225023;23;20017;-78
2022/01/21 11:42:05;;;;;;;41.17;11.75;;;;;;;0.00;71.38;99044.59;6188194;23;20032;-78
2022/01/21 11:44:37;;;;;;;34.85;9.98;;;;;;;0.01;71.90;99048.09;6224363;23;20025;-79
2022/01/21 11:47:28;;;;;;;35.50;10.77;;;;;;;0.07;71.68;99059.44;6224787;23;20063;-78
2022/01/21 11:49:57;;;;;;;23.88;7.15;;;;;;;0.02;71.13;99055.16;6224895;23;20095;-77
2022/01/21 11:52:25;;;;;;;32.85;9.27;;;;;;;0.05;70.77;99044.44;6224834;23;20021;-78
2022/01/21 11:54:56;;;;;;;35.40;11.57;;;;;;;-0.02;70.58;99047.28;6224723;23;20522;-78
2022/01/21 11:57:30;;;;;;;49.13;15.50;;;;;;;0.01;70.68;99050.75;6225026;23;20024;-79
2022/01/21 12:00:17;;;;;;;31.17;8.75;;;;;;;0.01;70.67;99050.75;6225292;23;20040;-77
2022/01/21 12:02:50;;;;;;;18.25;5.65;;;;;;;0.01;70.58;99051.66;6225364;23;20332;-77
2022/01/21 12:05:26;;;;;;;31.08;9.68;;;;;;;0.02;70.25;99044.53;6224933;23;20455;-77
2022/01/21 12:07:54;;;;;;;30.38;9.80;;;;;;;0.01;70.46;99042.78;6224547;23;20020;-74
2022/01/21 12:10:32;;;;;;;58.63;20.05;;;;;;;0.06;70.12;99051.50;6224811;23;20048;-78
2022/01/21 12:13:04;;;;;;;45.10;16.00;;;;;;;0.02;70.76;99039.22;6224399;23;20020;-77
2022/01/21 12:16:07;;;;;;;79.35;30.55;;;;;;;-0.01;71.11;99038.41;6224667;23;20024;-77
2022/01/21 12:19:24;;;;;;;19.92;6.82;;;;;;;-0.01;70.75;99035.75;6224463;23;20016;-78
2022/01/21 12:21:53;;;;;;;31.08;9.95;;;;;;;0.04;71.01;99032.09;6224293;23;20092;-78
2022/01/21 12:24:46;;;;;;;20.30;5.47;;;;;;;0.01;71.05;99026.84;6224631;23;20025;-77
2022/01/21 12:27:15;;;;;;;17.58;6.13;;;;;;;0.02;71.22;99026.84;6255040;23;20020;-78
2022/01/21 12:29:43;;;;;;;21.85;7.50;;;;;;;0.06;70.69;99036.47;6255619;23;20350;-77
2022/01/21 12:32:20;;;;;;;21.60;7.40;;;;;;;0.06;70.27;99030.25;6251918;23;20058;-77
2022/01/21 12:35:16;;;;;;;26.58;8.80;;;;;;;0.01;71.97;99048.09;6251450;23;20059;-78
2022/01/21 12:41:04;;;;;;;27.40;9.50;;;;;;;-0.02;73.15;99051.69;6242154;23;20016;-77
2022/01/21 12:43:41;;;;;;;25.30;10.02;;;;;;;0.00;73.18;99055.22;6251052;23;20054;-77
2022/01/21 12:46:11;;;;;;;23.88;7.32;;;;;;;0.04;72.13;99069.25;6251487;23;20023;-77
2022/01/21 12:48:39;;;;;;;23.75;9.13;;;;;;;-0.04;72.72;99061.47;6251175;23;20020;-76
2022/01/21 12:51:21;;;;;;;30.60;8.65;;;;;;;0.01;73.12;99066.69;6251732;23;20517;-77
2022/01/21 12:56:45;;;;;;;26.40;9.95;;;;;;;-0.08;73.84;99071.31;6251303;23;20054;-78
2022/01/21 12:59:23;;;;;;;29.85;10.85;;;;;;;0.01;73.37;99064.03;6251872;23;20074;-77
2022/01/21 13:01:51;;;;;;;24.95;9.90;;;;;;;0.01;72.68;99064.03;6251071;23;20028;-77